sensor_id;sensor_type;location;lat;lon;timestamp;pressure;altitude;pressure_sealevel;temperature;humidity
8049;BME280;20935;42.660;23.342;2023-01-31T00:00:39;94277.81;;;0.67;94.85
8049;BME280;20935;42.660;23.342;2023-01-31T00:03:24;94286.50;;;0.52;96.57
8049;BME280;20935;42.660;23.342;2023-01-31T00:06:13;94292.84;;;0.66;96.08
8049;BME280;20935;42.660;23.342;2023-01-31T00:09:00;94292.91;;;0.85;95.96
8049;BME280;20935;42.660;23.342;2023-01-31T00:11:47;94298.88;;;0.82;95.89
8049;BME280;20935;42.660;23.342;2023-01-31T00:14:33;94296.44;;;1.09;95.49
8049;BME280;20935;42.660;23.342;2023-01-31T00:17:20;94295.03;;;0.96;94.47
8049;BME280;20935;42.660;23.342;2023-01-31T00:20:06;94293.84;;;0.93;94.93
8049;BME280;20935;42.660;23.342;2023-01-31T00:22:52;94286.69;;;0.93;94.72
8049;BME280;20935;42.660;23.342;2023-01-31T00:25:37;94275.50;;;0.65;95.68
8049;BME280;20935;42.660;23.342;2023-01-31T00:28:24;94271.59;;;0.75;95.36
8049;BME280;20935;42.660;23.342;2023-01-31T00:31:11;94279.13;;;0.92;94.87
8049;BME280;20935;42.660;23.342;2023-01-31T00:33:57;94277.38;;;0.65;96.53
8049;BME280;20935;42.660;23.342;2023-01-31T00:36:43;94280.31;;;0.94;94.37
8049;BME280;20935;42.660;23.342;2023-01-31T00:39:28;94292.69;;;1.10;93.36
8049;BME280;20935;42.660;23.342;2023-01-31T00:42:14;94287.34;;;1.06;92.83
8049;BME280;20935;42.660;23.342;2023-01-31T00:45:01;94295.38;;;0.94;93.44
8049;BME280;20935;42.660;23.342;2023-01-31T00:47:47;94302.84;;;0.92;94.36
8049;BME280;20935;42.660;23.342;2023-01-31T00:50:32;94291.91;;;0.59;95.61
8049;BME280;20935;42.660;23.342;2023-01-31T00:53:18;94295.22;;;0.87;94.64
8049;BME280;20935;42.660;23.342;2023-01-31T00:56:08;94292.47;;;0.99;94.52
8049;BME280;20935;42.660;23.342;2023-01-31T00:58:54;94279.31;;;0.68;95.02
8049;BME280;20935;42.660;23.342;2023-01-31T01:01:44;94278.28;;;0.88;95.59
8049;BME280;20935;42.660;23.342;2023-01-31T01:04:29;94272.66;;;1.24;93.23
8049;BME280;20935;42.660;23.342;2023-01-31T01:07:14;94285.47;;;1.07;94.45
8049;BME280;20935;42.660;23.342;2023-01-31T01:10:01;94293.59;;;0.82;95.26
8049;BME280;20935;42.660;23.342;2023-01-31T01:12:47;94302.09;;;1.26;93.79
8049;BME280;20935;42.660;23.342;2023-01-31T01:15:43;94301.41;;;1.29;93.81
8049;BME280;20935;42.660;23.342;2023-01-31T01:18:30;94301.44;;;1.14;94.22
8049;BME280;20935;42.660;23.342;2023-01-31T01:21:20;94297.19;;;0.74;97.57
8049;BME280;20935;42.660;23.342;2023-01-31T01:24:07;94292.84;;;0.82;97.02
8049;BME280;20935;42.660;23.342;2023-01-31T01:26:56;94278.53;;;0.99;96.63
8049;BME280;20935;42.660;23.342;2023-01-31T01:29:41;94278.69;;;1.06;88.73
8049;BME280;20935;42.660;23.342;2023-01-31T01:32:27;94272.25;;;1.22;88.29
8049;BME280;20935;42.660;23.342;2023-01-31T01:35:14;94272.13;;;1.34;83.08
8049;BME280;20935;42.660;23.342;2023-01-31T01:37:59;94264.81;;;1.28;82.07
8049;BME280;20935;42.660;23.342;2023-01-31T01:40:45;94263.38;;;1.50;75.78
8049;BME280;20935;42.660;23.342;2023-01-31T01:43:44;94271.63;;;1.86;66.96
8049;BME280;20935;42.660;23.342;2023-01-31T01:46:33;94274.47;;;1.97;67.72
8049;BME280;20935;42.660;23.342;2023-01-31T01:49:26;94266.03;;;2.11;61.50
8049;BME280;20935;42.660;23.342;2023-01-31T01:52:14;94277.56;;;2.22;60.27
8049;BME280;20935;42.660;23.342;2023-01-31T01:55:35;94276.03;;;2.21;59.95
8049;BME280;20935;42.660;23.342;2023-01-31T01:58:28;94267.81;;;2.26;58.94
8049;BME280;20935;42.660;23.342;2023-01-31T02:01:16;94273.53;;;2.31;60.14
8049;BME280;20935;42.660;23.342;2023-01-31T02:04:02;94274.91;;;2.22;60.43
8049;BME280;20935;42.660;23.342;2023-01-31T02:06:49;94269.41;;;2.30;58.47
8049;BME280;20935;42.660;23.342;2023-01-31T02:13:01;94280.53;;;2.43;59.10
8049;BME280;20935;42.660;23.342;2023-01-31T02:15:54;94290.38;;;2.23;58.25
8049;BME280;20935;42.660;23.342;2023-01-31T02:19:09;94278.53;;;2.36;57.67
8049;BME280;20935;42.660;23.342;2023-01-31T02:22:09;94275.41;;;2.31;57.18
8049;BME280;20935;42.660;23.342;2023-01-31T02:28:44;94284.44;;;2.26;58.30
8049;BME280;20935;42.660;23.342;2023-01-31T02:31:59;94279.59;;;2.09;58.33
8049;BME280;20935;42.660;23.342;2023-01-31T02:34:53;94280.53;;;2.20;57.75
8049;BME280;20935;42.660;23.342;2023-01-31T02:37:51;94284.22;;;2.16;57.82
8049;BME280;20935;42.660;23.342;2023-01-31T02:40:46;94292.22;;;2.19;56.27
8049;BME280;20935;42.660;23.342;2023-01-31T02:43:38;94296.75;;;2.19;55.92
8049;BME280;20935;42.660;23.342;2023-01-31T02:46:46;94295.44;;;2.09;56.99
8049;BME280;20935;42.660;23.342;2023-01-31T02:49:37;94298.06;;;2.09;57.41
8049;BME280;20935;42.660;23.342;2023-01-31T02:52:30;94288.13;;;2.22;58.71
8049;BME280;20935;42.660;23.342;2023-01-31T02:55:21;94299.56;;;2.07;60.16
8049;BME280;20935;42.660;23.342;2023-01-31T02:58:29;94303.47;;;2.16;61.29
8049;BME280;20935;42.660;23.342;2023-01-31T03:01:18;94316.69;;;2.16;61.56
8049;BME280;20935;42.660;23.342;2023-01-31T03:04:08;94313.91;;;2.09;62.56
8049;BME280;20935;42.660;23.342;2023-01-31T03:07:03;94323.31;;;2.07;63.34
8049;BME280;20935;42.660;23.342;2023-01-31T03:09:57;94336.03;;;2.01;63.76
8049;BME280;20935;42.660;23.342;2023-01-31T03:12:50;94344.50;;;2.10;64.24
8049;BME280;20935;42.660;23.342;2023-01-31T03:15:46;94338.47;;;1.91;65.59
8049;BME280;20935;42.660;23.342;2023-01-31T03:19:01;94352.84;;;1.93;66.98
8049;BME280;20935;42.660;23.342;2023-01-31T03:22:00;94354.97;;;1.68;70.60
8049;BME280;20935;42.660;23.342;2023-01-31T03:24:50;94339.25;;;1.91;69.79
8049;BME280;20935;42.660;23.342;2023-01-31T03:27:37;94347.19;;;1.75;71.00
8049;BME280;20935;42.660;23.342;2023-01-31T03:30:36;94346.66;;;1.66;72.78
8049;BME280;20935;42.660;23.342;2023-01-31T03:33:25;94350.06;;;1.67;74.13
8049;BME280;20935;42.660;23.342;2023-01-31T03:36:19;94353.44;;;1.67;74.83
8049;BME280;20935;42.660;23.342;2023-01-31T03:39:12;94356.66;;;1.76;75.89
8049;BME280;20935;42.660;23.342;2023-01-31T03:42:05;94363.31;;;1.70;78.58
8049;BME280;20935;42.660;23.342;2023-01-31T03:44:54;94374.47;;;1.64;80.44
8049;BME280;20935;42.660;23.342;2023-01-31T03:47:46;94373.84;;;1.51;82.45
8049;BME280;20935;42.660;23.342;2023-01-31T03:50:35;94410.34;;;1.49;84.74
8049;BME280;20935;42.660;23.342;2023-01-31T03:53:25;94378.47;;;1.73;83.63
8049;BME280;20935;42.660;23.342;2023-01-31T03:56:15;94386.56;;;1.65;84.72
8049;BME280;20935;42.660;23.342;2023-01-31T03:59:06;94382.50;;;1.52;86.63
8049;BME280;20935;42.660;23.342;2023-01-31T04:01:54;94390.09;;;1.53;87.97
8049;BME280;20935;42.660;23.342;2023-01-31T04:04:44;94374.38;;;1.41;90.26
8049;BME280;20935;42.660;23.342;2023-01-31T04:07:31;94380.34;;;1.38;92.33
8049;BME280;20935;42.660;23.342;2023-01-31T04:10:17;94380.72;;;1.56;91.81
8049;BME280;20935;42.660;23.342;2023-01-31T04:13:04;94387.16;;;1.39;94.29
8049;BME280;20935;42.660;23.342;2023-01-31T04:15:50;94388.84;;;1.31;95.55
8049;BME280;20935;42.660;23.342;2023-01-31T04:18:36;94385.84;;;1.49;95.64
8049;BME280;20935;42.660;23.342;2023-01-31T04:21:21;94385.94;;;1.36;96.21
8049;BME280;20935;42.660;23.342;2023-01-31T04:24:07;94399.31;;;1.28;98.25
8049;BME280;20935;42.660;23.342;2023-01-31T04:26:53;94403.31;;;1.37;98.37
8049;BME280;20935;42.660;23.342;2023-01-31T04:29:38;94397.81;;;1.27;99.58
8049;BME280;20935;42.660;23.342;2023-01-31T04:32:25;94385.28;;;1.24;100.00
8049;BME280;20935;42.660;23.342;2023-01-31T04:35:11;94386.00;;;1.05;100.00
8049;BME280;20935;42.660;23.342;2023-01-31T04:37:56;94404.38;;;1.02;100.00
8049;BME280;20935;42.660;23.342;2023-01-31T04:40:41;94404.63;;;0.97;100.00
8049;BME280;20935;42.660;23.342;2023-01-31T04:43:27;94412.97;;;0.99;100.00
8049;BME280;20935;42.660;23.342;2023-01-31T04:46:12;94411.84;;;1.00;100.00
8049;BME280;20935;42.660;23.342;2023-01-31T04:48:59;94419.56;;;0.92;100.00
8049;BME280;20935;42.660;23.342;2023-01-31T04:51:45;94437.19;;;1.04;100.00
8049;BME280;20935;42.660;23.342;2023-01-31T04:54:30;94431.13;;;1.04;100.00
8049;BME280;20935;42.660;23.342;2023-01-31T04:57:16;94424.19;;;1.11;100.00
8049;BME280;20935;42.660;23.342;2023-01-31T05:00:02;94469.66;;;1.08;100.00
8049;BME280;20935;42.660;23.342;2023-01-31T05:02:48;94431.50;;;1.02;100.00
8049;BME280;20935;42.660;23.342;2023-01-31T05:05:35;94423.75;;;1.09;100.00
8049;BME280;20935;42.660;23.342;2023-01-31T05:08:21;94421.63;;;0.99;100.00
8049;BME280;20935;42.660;23.342;2023-01-31T05:11:06;94416.94;;;0.92;100.00
8049;BME280;20935;42.660;23.342;2023-01-31T05:13:55;94414.13;;;1.01;100.00
8049;BME280;20935;42.660;23.342;2023-01-31T05:16:41;94419.16;;;1.06;100.00
8049;BME280;20935;42.660;23.342;2023-01-31T05:19:29;94406.91;;;1.14;100.00
8049;BME280;20935;42.660;23.342;2023-01-31T05:22:15;94410.81;;;1.04;100.00
8049;BME280;20935;42.660;23.342;2023-01-31T05:25:00;94417.28;;;1.22;100.00
8049;BME280;20935;42.660;23.342;2023-01-31T05:27:46;94436.06;;;1.36;100.00
8049;BME280;20935;42.660;23.342;2023-01-31T05:30:32;94431.34;;;1.11;100.00
8049;BME280;20935;42.660;23.342;2023-01-31T05:33:17;94433.97;;;1.11;100.00
8049;BME280;20935;42.660;23.342;2023-01-31T05:36:04;94431.06;;;1.16;100.00
8049;BME280;20935;42.660;23.342;2023-01-31T05:38:51;94435.16;;;1.13;100.00
8049;BME280;20935;42.660;23.342;2023-01-31T05:41:36;94440.00;;;1.27;100.00
8049;BME280;20935;42.660;23.342;2023-01-31T05:44:22;94442.03;;;1.33;100.00
8049;BME280;20935;42.660;23.342;2023-01-31T05:47:08;94430.63;;;1.14;100.00
8049;BME280;20935;42.660;23.342;2023-01-31T05:49:53;94447.72;;;1.35;100.00
8049;BME280;20935;42.660;23.342;2023-01-31T05:52:39;94448.47;;;1.36;100.00
8049;BME280;20935;42.660;23.342;2023-01-31T05:55:26;94457.31;;;1.43;100.00
8049;BME280;20935;42.660;23.342;2023-01-31T05:58:11;94444.81;;;1.40;100.00
8049;BME280;20935;42.660;23.342;2023-01-31T06:00:57;94449.94;;;1.49;100.00
8049;BME280;20935;42.660;23.342;2023-01-31T06:03:43;94452.41;;;1.42;100.00
8049;BME280;20935;42.660;23.342;2023-01-31T06:06:28;94442.25;;;1.44;100.00
8049;BME280;20935;42.660;23.342;2023-01-31T06:09:13;94446.78;;;1.59;100.00
8049;BME280;20935;42.660;23.342;2023-01-31T06:12:00;94455.81;;;1.42;100.00
8049;BME280;20935;42.660;23.342;2023-01-31T06:14:55;94460.41;;;1.46;100.00
8049;BME280;20935;42.660;23.342;2023-01-31T06:17:43;94473.31;;;1.66;100.00
8049;BME280;20935;42.660;23.342;2023-01-31T06:20:29;94471.84;;;1.69;100.00
8049;BME280;20935;42.660;23.342;2023-01-31T06:23:14;94474.41;;;1.81;100.00
8049;BME280;20935;42.660;23.342;2023-01-31T06:26:02;94481.22;;;1.66;100.00
8049;BME280;20935;42.660;23.342;2023-01-31T06:28:49;94476.28;;;1.65;100.00
8049;BME280;20935;42.660;23.342;2023-01-31T06:31:34;94487.50;;;1.77;100.00
8049;BME280;20935;42.660;23.342;2023-01-31T06:34:20;94480.78;;;1.80;100.00
8049;BME280;20935;42.660;23.342;2023-01-31T06:37:07;94477.72;;;1.78;100.00
8049;BME280;20935;42.660;23.342;2023-01-31T06:39:53;94485.72;;;1.81;100.00
8049;BME280;20935;42.660;23.342;2023-01-31T06:42:38;94486.38;;;1.94;100.00
8049;BME280;20935;42.660;23.342;2023-01-31T06:45:25;94479.50;;;1.89;100.00
8049;BME280;20935;42.660;23.342;2023-01-31T06:48:11;94484.34;;;1.87;100.00
8049;BME280;20935;42.660;23.342;2023-01-31T06:50:56;94487.16;;;1.95;100.00
8049;BME280;20935;42.660;23.342;2023-01-31T06:53:42;94494.59;;;2.08;100.00
8049;BME280;20935;42.660;23.342;2023-01-31T06:56:27;94492.97;;;2.04;100.00
8049;BME280;20935;42.660;23.342;2023-01-31T06:59:13;94496.97;;;2.13;100.00
8049;BME280;20935;42.660;23.342;2023-01-31T07:02:00;94492.97;;;2.04;100.00
8049;BME280;20935;42.660;23.342;2023-01-31T07:04:45;94496.81;;;2.06;100.00
8049;BME280;20935;42.660;23.342;2023-01-31T07:07:30;94487.38;;;2.05;100.00
8049;BME280;20935;42.660;23.342;2023-01-31T07:10:16;94508.50;;;2.05;100.00
8049;BME280;20935;42.660;23.342;2023-01-31T07:13:02;94497.03;;;2.17;100.00
8049;BME280;20935;42.660;23.342;2023-01-31T07:15:47;94498.31;;;2.23;100.00
8049;BME280;20935;42.660;23.342;2023-01-31T07:18:34;94496.03;;;2.41;100.00
8049;BME280;20935;42.660;23.342;2023-01-31T07:21:21;94508.47;;;2.40;100.00
8049;BME280;20935;42.660;23.342;2023-01-31T07:24:07;94501.91;;;2.15;100.00
8049;BME280;20935;42.660;23.342;2023-01-31T07:26:52;94491.13;;;2.23;100.00
8049;BME280;20935;42.660;23.342;2023-01-31T07:29:38;94492.47;;;2.14;100.00
8049;BME280;20935;42.660;23.342;2023-01-31T07:32:27;94496.97;;;2.13;100.00
8049;BME280;20935;42.660;23.342;2023-01-31T07:35:14;94496.41;;;2.23;100.00
8049;BME280;20935;42.660;23.342;2023-01-31T07:38:00;94509.81;;;2.50;100.00
8049;BME280;20935;42.660;23.342;2023-01-31T07:40:45;94495.19;;;2.36;100.00
8049;BME280;20935;42.660;23.342;2023-01-31T07:43:31;94500.19;;;2.22;100.00
8049;BME280;20935;42.660;23.342;2023-01-31T07:46:17;94510.97;;;2.33;100.00
8049;BME280;20935;42.660;23.342;2023-01-31T07:49:02;94506.53;;;2.37;100.00
8049;BME280;20935;42.660;23.342;2023-01-31T07:51:52;94501.16;;;2.33;100.00
8049;BME280;20935;42.660;23.342;2023-01-31T07:54:37;94497.63;;;2.26;100.00
8049;BME280;20935;42.660;23.342;2023-01-31T07:57:23;94503.19;;;2.59;100.00
8049;BME280;20935;42.660;23.342;2023-01-31T08:00:09;94518.97;;;2.56;100.00
8049;BME280;20935;42.660;23.342;2023-01-31T08:03:24;94499.56;;;2.48;100.00
8049;BME280;20935;42.660;23.342;2023-01-31T08:06:17;94493.31;;;2.56;100.00
8049;BME280;20935;42.660;23.342;2023-01-31T08:09:05;94496.31;;;2.55;100.00
8049;BME280;20935;42.660;23.342;2023-01-31T08:11:51;94489.06;;;2.52;100.00
8049;BME280;20935;42.660;23.342;2023-01-31T08:14:37;94500.34;;;2.68;100.00
8049;BME280;20935;42.660;23.342;2023-01-31T08:17:22;94495.53;;;2.73;100.00
8049;BME280;20935;42.660;23.342;2023-01-31T08:20:09;94489.47;;;2.92;100.00
8049;BME280;20935;42.660;23.342;2023-01-31T08:22:55;94479.75;;;2.77;100.00
8049;BME280;20935;42.660;23.342;2023-01-31T08:25:44;94479.31;;;2.94;100.00
8049;BME280;20935;42.660;23.342;2023-01-31T08:28:30;94476.34;;;3.18;98.52
8049;BME280;20935;42.660;23.342;2023-01-31T08:31:17;94486.97;;;3.22;98.77
8049;BME280;20935;42.660;23.342;2023-01-31T08:34:05;94477.28;;;3.29;97.62
8049;BME280;20935;42.660;23.342;2023-01-31T08:36:51;94472.59;;;3.23;95.70
8049;BME280;20935;42.660;23.342;2023-01-31T08:39:36;94485.00;;;2.96;97.88
8049;BME280;20935;42.660;23.342;2023-01-31T08:42:23;94485.22;;;3.29;98.15
8049;BME280;20935;42.660;23.342;2023-01-31T08:45:09;94484.97;;;3.61;94.42
8049;BME280;20935;42.660;23.342;2023-01-31T08:47:58;94481.44;;;3.53;94.38
8049;BME280;20935;42.660;23.342;2023-01-31T08:50:44;94491.66;;;3.77;93.84
8049;BME280;20935;42.660;23.342;2023-01-31T08:53:29;94483.91;;;3.43;95.18
8049;BME280;20935;42.660;23.342;2023-01-31T08:56:15;94498.06;;;3.31;96.49
8049;BME280;20935;42.660;23.342;2023-01-31T08:59:02;94479.22;;;3.33;96.54
8049;BME280;20935;42.660;23.342;2023-01-31T09:01:47;94509.50;;;3.58;95.24
8049;BME280;20935;42.660;23.342;2023-01-31T09:04:33;94496.25;;;3.12;97.10
8049;BME280;20935;42.660;23.342;2023-01-31T09:07:19;94483.66;;;3.51;95.00
8049;BME280;20935;42.660;23.342;2023-01-31T09:10:05;94492.53;;;3.85;92.64
8049;BME280;20935;42.660;23.342;2023-01-31T09:12:50;94505.59;;;4.01;90.75
8049;BME280;20935;42.660;23.342;2023-01-31T09:15:37;94489.69;;;3.74;90.90
8049;BME280;20935;42.660;23.342;2023-01-31T09:18:22;94451.75;;;3.67;90.42
8049;BME280;20935;42.660;23.342;2023-01-31T09:21:09;94490.97;;;3.35;93.77
8049;BME280;20935;42.660;23.342;2023-01-31T09:23:57;94477.50;;;3.93;89.84
8049;BME280;20935;42.660;23.342;2023-01-31T09:26:42;94488.66;;;4.35;86.46
8049;BME280;20935;42.660;23.342;2023-01-31T09:29:28;94473.16;;;4.37;84.96
8049;BME280;20935;42.660;23.342;2023-01-31T09:32:15;94501.31;;;4.19;85.79
8049;BME280;20935;42.660;23.342;2023-01-31T09:35:00;94482.69;;;4.42;85.18
8049;BME280;20935;42.660;23.342;2023-01-31T09:37:46;94473.47;;;4.99;81.31
8049;BME280;20935;42.660;23.342;2023-01-31T09:40:33;94445.97;;;4.77;80.72
8049;BME280;20935;42.660;23.342;2023-01-31T09:43:23;94452.66;;;5.01;80.11
8049;BME280;20935;42.660;23.342;2023-01-31T09:46:13;94435.38;;;4.77;80.03
8049;BME280;20935;42.660;23.342;2023-01-31T09:49:02;94444.91;;;5.26;78.64
8049;BME280;20935;42.660;23.342;2023-01-31T09:51:54;94467.81;;;5.00;78.40
8049;BME280;20935;42.660;23.342;2023-01-31T09:54:42;94429.22;;;5.10;77.86
8049;BME280;20935;42.660;23.342;2023-01-31T09:57:39;94445.31;;;4.87;77.70
8049;BME280;20935;42.660;23.342;2023-01-31T10:00:35;94450.03;;;5.04;77.89
8049;BME280;20935;42.660;23.342;2023-01-31T10:03:40;94455.41;;;5.11;76.84
8049;BME280;20935;42.660;23.342;2023-01-31T10:06:35;94448.34;;;5.26;76.60
8049;BME280;20935;42.660;23.342;2023-01-31T10:09:26;94444.13;;;4.81;78.94
8049;BME280;20935;42.660;23.342;2023-01-31T10:12:16;94451.16;;;4.66;80.11
8049;BME280;20935;42.660;23.342;2023-01-31T10:15:13;94472.81;;;4.72;79.56
8049;BME280;20935;42.660;23.342;2023-01-31T10:18:04;94462.13;;;4.65;79.58
8049;BME280;20935;42.660;23.342;2023-01-31T10:20:53;94459.78;;;4.93;78.68
8049;BME280;20935;42.660;23.342;2023-01-31T10:23:44;94460.28;;;5.50;74.68
8049;BME280;20935;42.660;23.342;2023-01-31T10:26:33;94455.44;;;5.15;74.90
8049;BME280;20935;42.660;23.342;2023-01-31T10:29:25;94458.91;;;4.82;75.09
8049;BME280;20935;42.660;23.342;2023-01-31T10:32:20;94451.00;;;4.52;78.56
8049;BME280;20935;42.660;23.342;2023-01-31T10:35:14;94446.09;;;4.54;78.16
8049;BME280;20935;42.660;23.342;2023-01-31T10:38:05;94451.50;;;4.32;78.25
8049;BME280;20935;42.660;23.342;2023-01-31T10:41:04;94437.06;;;3.99;81.01
8049;BME280;20935;42.660;23.342;2023-01-31T10:43:58;94446.44;;;4.19;81.19
8049;BME280;20935;42.660;23.342;2023-01-31T10:46:45;94444.91;;;4.48;80.03
8049;BME280;20935;42.660;23.342;2023-01-31T10:49:31;94452.44;;;4.46;80.58
8049;BME280;20935;42.660;23.342;2023-01-31T10:52:39;94446.50;;;4.26;80.83
8049;BME280;20935;42.660;23.342;2023-01-31T10:55:46;94449.16;;;3.97;83.56
8049;BME280;20935;42.660;23.342;2023-01-31T10:58:37;94452.38;;;3.57;88.09
8049;BME280;20935;42.660;23.342;2023-01-31T11:01:23;94455.00;;;3.83;88.53
8049;BME280;20935;42.660;23.342;2023-01-31T11:04:22;94448.50;;;4.03;86.63
8049;BME280;20935;42.660;23.342;2023-01-31T11:07:08;94460.75;;;3.85;87.59
8049;BME280;20935;42.660;23.342;2023-01-31T11:09:54;94446.41;;;3.37;90.44
8049;BME280;20935;42.660;23.342;2023-01-31T11:12:50;94482.72;;;3.40;91.95
8049;BME280;20935;42.660;23.342;2023-01-31T11:15:39;94449.91;;;3.45;91.75
8049;BME280;20935;42.660;23.342;2023-01-31T11:18:27;94453.59;;;3.63;91.25
8049;BME280;20935;42.660;23.342;2023-01-31T11:21:19;94448.66;;;3.39;91.90
8049;BME280;20935;42.660;23.342;2023-01-31T11:24:14;94457.91;;;3.48;93.61
8049;BME280;20935;42.660;23.342;2023-01-31T11:27:05;94451.22;;;3.54;92.78
8049;BME280;20935;42.660;23.342;2023-01-31T11:29:51;94460.75;;;3.36;95.23
8049;BME280;20935;42.660;23.342;2023-01-31T11:32:42;94466.09;;;3.40;95.88
8049;BME280;20935;42.660;23.342;2023-01-31T11:35:28;94456.59;;;3.39;96.62
8049;BME280;20935;42.660;23.342;2023-01-31T11:38:19;94452.09;;;3.16;98.13
8049;BME280;20935;42.660;23.342;2023-01-31T11:41:30;94456.00;;;3.22;98.84
8049;BME280;20935;42.660;23.342;2023-01-31T11:44:18;94456.06;;;3.26;99.18
8049;BME280;20935;42.660;23.342;2023-01-31T11:47:04;94452.81;;;3.36;98.91
8049;BME280;20935;42.660;23.342;2023-01-31T11:49:57;94449.09;;;3.41;98.99
8049;BME280;20935;42.660;23.342;2023-01-31T11:52:43;94461.84;;;3.12;100.00
8049;BME280;20935;42.660;23.342;2023-01-31T11:55:36;94459.03;;;3.24;100.00
8049;BME280;20935;42.660;23.342;2023-01-31T11:58:24;94442.94;;;3.10;100.00
8049;BME280;20935;42.660;23.342;2023-01-31T12:01:35;94442.41;;;3.24;100.00
8049;BME280;20935;42.660;23.342;2023-01-31T12:04:31;94442.19;;;3.10;100.00
8049;BME280;20935;42.660;23.342;2023-01-31T12:07:27;94443.56;;;3.04;100.00
8049;BME280;20935;42.660;23.342;2023-01-31T12:10:34;94438.09;;;2.93;100.00
8049;BME280;20935;42.660;23.342;2023-01-31T12:13:24;94427.81;;;2.88;100.00
8049;BME280;20935;42.660;23.342;2023-01-31T12:16:12;94439.09;;;2.85;100.00
8049;BME280;20935;42.660;23.342;2023-01-31T12:19:07;94442.03;;;2.80;100.00
8049;BME280;20935;42.660;23.342;2023-01-31T12:22:03;94429.56;;;2.80;100.00
8049;BME280;20935;42.660;23.342;2023-01-31T12:25:01;94438.22;;;3.00;100.00
8049;BME280;20935;42.660;23.342;2023-01-31T12:28:08;94442.53;;;3.08;100.00
8049;BME280;20935;42.660;23.342;2023-01-31T12:34:23;94444.34;;;3.04;100.00
8049;BME280;20935;42.660;23.342;2023-01-31T12:37:20;94437.63;;;3.33;100.00
8049;BME280;20935;42.660;23.342;2023-01-31T12:40:24;94460.25;;;3.53;99.35
8049;BME280;20935;42.660;23.342;2023-01-31T12:43:22;94441.16;;;3.41;99.51
8049;BME280;20935;42.660;23.342;2023-01-31T12:46:15;94451.50;;;3.26;100.00
8049;BME280;20935;42.660;23.342;2023-01-31T12:52:27;94445.69;;;3.40;99.62
8049;BME280;20935;42.660;23.342;2023-01-31T12:55:33;94447.84;;;3.35;100.00
8049;BME280;20935;42.660;23.342;2023-01-31T12:58:33;94452.94;;;3.20;100.00
8049;BME280;20935;42.660;23.342;2023-01-31T13:01:30;94456.50;;;3.09;100.00
8049;BME280;20935;42.660;23.342;2023-01-31T13:04:32;94455.03;;;3.11;100.00
8049;BME280;20935;42.660;23.342;2023-01-31T13:07:27;94448.03;;;3.00;100.00
8049;BME280;20935;42.660;23.342;2023-01-31T13:10:34;94458.88;;;2.72;100.00
8049;BME280;20935;42.660;23.342;2023-01-31T13:13:37;94456.16;;;2.68;100.00
8049;BME280;20935;42.660;23.342;2023-01-31T13:16:28;94468.03;;;2.97;100.00
8049;BME280;20935;42.660;23.342;2023-01-31T13:19:17;94463.28;;;2.87;100.00
8049;BME280;20935;42.660;23.342;2023-01-31T13:22:07;94458.16;;;2.75;100.00
8049;BME280;20935;42.660;23.342;2023-01-31T13:25:05;94454.84;;;2.78;100.00
8049;BME280;20935;42.660;23.342;2023-01-31T13:28:05;94454.84;;;2.78;100.00
8049;BME280;20935;42.660;23.342;2023-01-31T13:30:55;94464.66;;;2.77;100.00
8049;BME280;20935;42.660;23.342;2023-01-31T13:33:50;94463.84;;;2.54;100.00
8049;BME280;20935;42.660;23.342;2023-01-31T13:36:42;94472.13;;;2.95;100.00
8049;BME280;20935;42.660;23.342;2023-01-31T13:39:34;94467.56;;;2.72;100.00
8049;BME280;20935;42.660;23.342;2023-01-31T13:42:21;94454.28;;;2.69;100.00
8049;BME280;20935;42.660;23.342;2023-01-31T13:45:20;94493.66;;;2.93;100.00
8049;BME280;20935;42.660;23.342;2023-01-31T13:48:09;94484.53;;;2.91;100.00
8049;BME280;20935;42.660;23.342;2023-01-31T13:51:03;94475.50;;;2.72;100.00
8049;BME280;20935;42.660;23.342;2023-01-31T13:53:57;94477.31;;;2.68;100.00
8049;BME280;20935;42.660;23.342;2023-01-31T13:56:48;94469.66;;;2.82;100.00
8049;BME280;20935;42.660;23.342;2023-01-31T13:59:35;94501.84;;;2.88;100.00
8049;BME280;20935;42.660;23.342;2023-01-31T14:02:23;94480.09;;;2.75;100.00
8049;BME280;20935;42.660;23.342;2023-01-31T14:05:52;94476.66;;;2.94;100.00
8049;BME280;20935;42.660;23.342;2023-01-31T14:08:56;94482.78;;;2.98;100.00
8049;BME280;20935;42.660;23.342;2023-01-31T14:11:43;94478.81;;;2.89;100.00
8049;BME280;20935;42.660;23.342;2023-01-31T14:14:36;94482.34;;;2.96;100.00
8049;BME280;20935;42.660;23.342;2023-01-31T14:20:47;94499.34;;;2.95;99.69
8049;BME280;20935;42.660;23.342;2023-01-31T14:23:43;94482.84;;;3.02;97.79
8049;BME280;20935;42.660;23.342;2023-01-31T14:26:32;94491.00;;;2.93;99.15
8049;BME280;20935;42.660;23.342;2023-01-31T14:29:19;94491.06;;;3.19;97.89
8049;BME280;20935;42.660;23.342;2023-01-31T14:32:12;94488.31;;;3.12;97.27
8049;BME280;20935;42.660;23.342;2023-01-31T14:38:11;94493.09;;;2.84;100.00
8049;BME280;20935;42.660;23.342;2023-01-31T14:41:03;94500.88;;;2.96;99.21
8049;BME280;20935;42.660;23.342;2023-01-31T14:44:01;94498.22;;;2.96;98.82
8049;BME280;20935;42.660;23.342;2023-01-31T14:47:06;94515.34;;;3.02;98.33
8049;BME280;20935;42.660;23.342;2023-01-31T14:50:18;94518.16;;;2.90;97.48
8049;BME280;20935;42.660;23.342;2023-01-31T14:53:26;94530.69;;;2.74;98.39
8049;BME280;20935;42.660;23.342;2023-01-31T14:56:26;94520.94;;;2.78;100.00
8049;BME280;20935;42.660;23.342;2023-01-31T14:59:26;94532.75;;;2.84;99.24
8049;BME280;20935;42.660;23.342;2023-01-31T15:05:38;94555.25;;;2.74;100.00
8049;BME280;20935;42.660;23.342;2023-01-31T15:08:44;94547.50;;;2.66;100.00
8049;BME280;20935;42.660;23.342;2023-01-31T15:11:41;94554.16;;;2.79;100.00
8049;BME280;20935;42.660;23.342;2023-01-31T15:14:33;94545.53;;;2.44;100.00
8049;BME280;20935;42.660;23.342;2023-01-31T15:17:22;94547.41;;;2.43;100.00
8049;BME280;20935;42.660;23.342;2023-01-31T15:20:15;94554.84;;;2.38;100.00
8049;BME280;20935;42.660;23.342;2023-01-31T15:23:04;94569.16;;;2.36;100.00
8049;BME280;20935;42.660;23.342;2023-01-31T15:25:55;94559.97;;;2.65;100.00
8049;BME280;20935;42.660;23.342;2023-01-31T15:28:42;94561.25;;;2.56;100.00
8049;BME280;20935;42.660;23.342;2023-01-31T15:31:31;94559.50;;;2.44;100.00